الصفحة الرئيسية
METAR-TAF:

METAR-TAF

مطار :

كوبانغ, إندونيسيا

دائرة عرض: 10-10-17S, خط طول: 123-40-16E, ارتفاع: 102 متر

مراقبة الطقس الحالي

تاريخ ووقت الإصدار 29 دقيقة قبل الساعة 06:30UTC
ريح 4 عقدة من الشمال/الشمال الغربي, الاتجاه يتراوح بين الغرب/الشمال الغربي و الشمال/الشمال الشرقي
درجة الحرارة 29°درجة مئوية
الرطوبة 79%
ضغط 1008 hPa
الرؤية 10 كم أو أكثر
غيوم مفككة على ارتفاع 1600 قدم

METAR: WATT 060630Z 33004KT 290V020 9999 BKN016 29/25 Q1008 NOSIG

زمن: 13:59 (06:59 UTC)

توقعات

تاريخ ووقت الإصدار 1ساعة و 59 دقيقة قبل الساعة 05:00UTC
التوقعات صالحة من06 الساعة 06 UTC إلى 07 الساعة 06 UTC
ريح 10 عقدة من الغرب
الرؤية: 8000 متر
غيوم قليلة على ارتفاع 1500 قدم, مزنة ركامية.
غيوم مفككة على ارتفاع 1600 قدم
مؤقت
من 06 الساعة 06 UTC إلى 06 الساعة 09 UTC
الرؤية: 3000 متر
عاصفة رعدية, مطر
أصبح
من 06 الساعة 11 UTC إلى 06 الساعة 13 UTC
ريح 4 عقدة من الجنوب
غيوم متفرقة على ارتفاع 1700 قدم

TAF: WATT 060500Z 0606/0706 26010KT 8000 FEW015CB BKN016 TEMPO 0606/0609 3000 TSRA BECMG 0611/0613 18004KT SCT017

أرصاد الطقس والتوقعات من أكثر من 4000 مطار (تقارير الطقس للمطار METAR والتنبؤ بالطقس بالمطارTAF).

المحطات المتاحة هي النقط الصفراء والحمراء على الخريطة.

حرك المؤشر فوق النقطة لمعرفة اسم المحطة.

ثم انقر لمعرفة أرصاد وتوقعات الطقس.

لتغيير الخارطة: اضغط على الأزرار الخضراء مع رمز الصليب الأسود للتكبير. على الزر الأخضر مع شرطة للتصغير، أو على الأسهم الخضراء للخرائط المجاورة.


METAR-TAF: